الصفحة الرئيسية
METAR-TAF:

METAR-TAF

مطار :

Boa Vista, رورايما, البرازيل

دائرة عرض: 02-50N, خط طول: 060-42W, ارتفاع: 84 متر

مراقبة الطقس الحالي

تاريخ ووقت الإصدار 42 دقيقة قبل الساعة 07:00UTC
ريح 9 عقدة من الشرق
درجة الحرارة 28°درجة مئوية
الرطوبة 62%
ضغط 1010 hPa
الرؤية 10 كم أو أكثر
غيوم قليلة على ارتفاع 4000 قدم
غيوم متفرقة على ارتفاع 10000 قدم

METAR: SBBV 050700Z 10009KT 9999 FEW040 SCT100 28/20 Q1010

زمن: 03:42 (07:42 UTC)

توقعات

تاريخ ووقت الإصدار 4ساعات و 46 دقيقة قبل الساعة 02:56UTC
التوقعات صالحة من05 الساعة 06 UTC إلى 06 الساعة 06 UTC
ريح 10 عقدة من الشرق/الجنوب الشرقي
الرؤية 10 كم أو أكثر
غيوم متفرقة على ارتفاع 3000 قدم
مؤقت
من 05 الساعة 18 UTC إلى 05 الساعة 22 UTC
ريح 7 عقدة من الشمال الشرقي

TAF: SBBV 050256Z 0506/0606 11010KT 9999 SCT030 TN26/0510Z TX35/0519Z TEMPO 0518/0522 05007KT RMK PHI

أرصاد الطقس والتوقعات من أكثر من 4000 مطار (تقارير الطقس للمطار METAR والتنبؤ بالطقس بالمطارTAF).

المحطات المتاحة هي النقط الصفراء والحمراء على الخريطة.

حرك المؤشر فوق النقطة لمعرفة اسم المحطة.

ثم انقر لمعرفة أرصاد وتوقعات الطقس.

لتغيير الخارطة: اضغط على الأزرار الخضراء مع رمز الصليب الأسود للتكبير. على الزر الأخضر مع شرطة للتصغير، أو على الأسهم الخضراء للخرائط المجاورة.


METAR-TAF: